createdAt,value
2022-10-21T00:00:53.747Z,54.17
2022-10-21T00:10:34.339Z,54.22
2022-10-21T00:15:30.483Z,54.21
2022-10-21T00:25:15.875Z,54.16
2022-10-21T00:30:02.458Z,54.22
2022-10-21T00:34:57.935Z,54.21
2022-10-21T00:39:50.956Z,54.19
2022-10-21T00:44:43.562Z,54.2
2022-10-21T00:49:36.413Z,54.2
2022-10-21T00:54:28.773Z,54.23
2022-10-21T00:59:23.937Z,54.21
2022-10-21T01:04:16.023Z,54.22
2022-10-21T01:09:08.639Z,54.24
2022-10-21T01:14:01.518Z,54.23
2022-10-21T01:18:48.456Z,54.2
2022-10-21T01:23:42.515Z,54.21
2022-10-21T01:28:30.434Z,54.21
2022-10-21T01:33:25.489Z,54.25
2022-10-21T01:38:12.516Z,54.28
2022-10-21T01:43:08.368Z,54.29
2022-10-21T01:48:03.936Z,54.27
2022-10-21T01:52:56.024Z,54.27
2022-10-21T01:57:48.969Z,54.31
2022-10-21T02:02:43.730Z,54.31
2022-10-21T02:07:35.787Z,54.34
2022-10-21T02:12:30.828Z,54.35
2022-10-21T02:17:24.884Z,54.31
2022-10-21T02:22:16.989Z,54.3
2022-10-21T02:27:11.888Z,54.31
2022-10-21T02:32:03.909Z,54.32
2022-10-21T02:36:56.657Z,54.37
2022-10-21T02:41:49.006Z,54.34
2022-10-21T02:46:41.852Z,54.34
2022-10-21T02:51:36.594Z,54.36
2022-10-21T02:56:30.715Z,54.33
2022-10-21T03:01:25.073Z,54.34
2022-10-21T03:06:11.420Z,54.37
2022-10-21T03:11:06.815Z,54.42
2022-10-21T03:16:02.231Z,54.44
2022-10-21T03:20:54.284Z,54.43
2022-10-21T03:25:47.004Z,54.43
2022-10-21T03:30:41.482Z,54.45
2022-10-21T03:35:27.981Z,54.45
2022-10-21T03:40:21.602Z,54.46
2022-10-21T03:45:10.345Z,54.8
2022-10-21T03:50:03.392Z,54.71
2022-10-21T03:54:58.580Z,54.67
2022-10-21T03:59:50.941Z,54.59
2022-10-21T04:04:43.683Z,54.97
2022-10-21T04:09:36.787Z,57.11
2022-10-21T04:14:31.587Z,56.4
2022-10-21T04:19:18.416Z,56.46
2022-10-21T04:24:12.327Z,54.3
2022-10-21T04:29:06.170Z,54.17
2022-10-21T04:34:01.383Z,54.7
2022-10-21T04:38:47.584Z,54.25
2022-10-21T04:43:41.369Z,53.74
2022-10-21T04:48:37.357Z,54.95
2022-10-21T04:53:29.867Z,53.64
2022-10-21T04:58:22.124Z,53.77
2022-10-21T05:03:16.890Z,53.95
2022-10-21T05:08:10.708Z,54.36
2022-10-21T05:13:01.694Z,54.61
2022-10-21T05:17:54.424Z,54.44
2022-10-21T05:22:41.227Z,54.41
2022-10-21T05:27:34.513Z,54.41
2022-10-21T05:32:28.864Z,54.43
2022-10-21T05:37:21.941Z,54.34
2022-10-21T05:47:11.531Z,54.34
2022-10-21T05:56:51.350Z,54.35
2022-10-21T06:06:34.729Z,54.4
2022-10-21T06:11:27.571Z,54.41
2022-10-21T06:16:22.410Z,54.41
2022-10-21T06:21:14.709Z,54.44
2022-10-21T06:26:09.456Z,54.46
2022-10-21T06:30:56.011Z,54.51
2022-10-21T06:35:49.474Z,54.45
2022-10-21T06:40:43.493Z,54.52
2022-10-21T06:45:36.263Z,54.41
2022-10-21T06:50:28.932Z,54.46
2022-10-21T06:55:23.989Z,54.52
2022-10-21T07:00:10.638Z,54.63
2022-10-21T07:05:04.600Z,54.54
2022-10-21T07:09:58.438Z,54.54
2022-10-21T07:14:51.287Z,54.56
2022-10-21T07:19:43.965Z,54.56
2022-10-21T07:24:38.347Z,54.61
2022-10-21T07:29:30.532Z,54.59
2022-10-21T07:34:23.490Z,54.59
2022-10-21T07:39:10.446Z,54.59
2022-10-21T07:44:04.432Z,54.51
2022-10-21T07:48:51.885Z,54.53
2022-10-21T07:53:45.538Z,54.65
2022-10-21T07:58:40.917Z,54.54
2022-10-21T08:03:33.257Z,54.63
2022-10-21T08:08:25.841Z,54.61
2022-10-21T08:13:18.692Z,54.54
2022-10-21T08:18:05.342Z,54.45
2022-10-21T08:22:58.589Z,54.52
2022-10-21T08:27:46.493Z,54.55
2022-10-21T08:32:40.315Z,54.5
2022-10-21T08:37:35.735Z,54.52
2022-10-21T08:42:28.250Z,54.54
2022-10-21T08:47:21.023Z,54.57
2022-10-21T08:52:13.734Z,54.61
2022-10-21T08:57:00.494Z,54.64
2022-10-21T09:01:55.969Z,54.65
2022-10-21T09:06:49.004Z,54.62
2022-10-21T09:11:41.770Z,54.62
2022-10-21T09:16:36.436Z,54.58
2022-10-21T09:21:28.718Z,54.58
2022-10-21T09:26:20.965Z,54.59
2022-10-21T09:31:13.851Z,54.54
2022-10-21T09:36:06.621Z,54.54
2022-10-21T09:40:53.445Z,54.47
2022-10-21T09:45:47.395Z,54.53
2022-10-21T09:50:42.772Z,54.53
2022-10-21T09:55:35.016Z,54.49
2022-10-21T10:00:28.013Z,54.59
2022-10-21T10:05:20.617Z,54.48
2022-10-21T10:10:13.564Z,54.51
2022-10-21T10:15:06.663Z,54.47
2022-10-21T10:19:59.949Z,54.53
2022-10-21T10:24:52.222Z,54.5
2022-10-21T10:29:44.816Z,54.56
2022-10-21T10:34:31.618Z,54.49
2022-10-21T10:39:24.989Z,54.53
2022-10-21T10:44:18.735Z,54.58
2022-10-21T10:49:11.567Z,54.59
2022-10-21T10:54:04.319Z,54.51
2022-10-21T11:03:46.620Z,54.49
2022-10-21T11:08:42.091Z,54.51
2022-10-21T11:13:40.043Z,54.54
2022-10-21T11:18:28.578Z,54.56
2022-10-21T11:23:23.328Z,54.54
2022-10-21T11:28:17.649Z,54.62
2022-10-21T11:33:09.699Z,54.59
2022-10-21T11:38:04.406Z,54.64
2022-10-21T11:42:58.526Z,54.63
2022-10-21T11:47:51.123Z,54.6
2022-10-21T11:52:43.907Z,54.65
2022-10-21T11:57:36.480Z,54.6
2022-10-21T12:02:29.227Z,54.6
2022-10-21T12:12:16.421Z,54.64
2022-10-21T12:22:03.414Z,54.67
2022-10-21T12:31:50.386Z,54.59
2022-10-21T12:36:45.354Z,54.66
2022-10-21T12:41:37.032Z,54.67
2022-10-21T12:46:33.708Z,54.61
2022-10-21T12:51:23.640Z,54.67
2022-10-21T12:56:17.550Z,54.71
2022-10-21T13:01:09.850Z,54.71
2022-10-21T13:06:04.980Z,54.66
2022-10-21T13:10:56.957Z,54.66
2022-10-21T13:15:49.568Z,54.61
2022-10-21T13:20:42.011Z,54.62
2022-10-21T13:25:37.392Z,54.64
2022-10-21T13:30:29.028Z,54.67
2022-10-21T13:40:08.790Z,54.65
2022-10-21T13:45:04.666Z,54.7
2022-10-21T13:49:56.653Z,54.63
2022-10-21T13:54:48.989Z,54.63
2022-10-21T13:59:41.648Z,54.47
2022-10-21T14:04:33.867Z,54.53
2022-10-21T14:09:28.599Z,54.49
2022-10-21T14:19:08.449Z,54.53
2022-10-21T14:24:04.425Z,54.58
2022-10-21T14:28:58.685Z,54.66
2022-10-21T14:33:51.022Z,54.66
2022-10-21T14:38:45.597Z,54.62
2022-10-21T14:43:40.059Z,54.55
2022-10-21T14:48:32.415Z,54.67
2022-10-21T14:53:26.541Z,54.69
2022-10-21T15:03:13.072Z,54.96
2022-10-21T15:08:05.834Z,54.9
2022-10-21T15:13:00.643Z,54.88
2022-10-21T15:17:52.685Z,55
2022-10-21T15:22:45.301Z,55.21
2022-10-21T15:27:39.388Z,55.17
2022-10-21T15:32:30.609Z,55.24
2022-10-21T15:37:24.743Z,55.33
2022-10-21T15:42:18.588Z,55.21
2022-10-21T15:47:10.820Z,55.41
2022-10-21T15:52:03.503Z,55.36
2022-10-21T15:56:58.469Z,55.52
2022-10-21T16:01:53.004Z,55.57
2022-10-21T16:06:45.396Z,55.48
2022-10-21T16:11:40.945Z,55.47
2022-10-21T16:16:30.380Z,55.56
2022-10-21T16:26:10.904Z,55.63
2022-10-21T16:31:04.684Z,55.76
2022-10-21T16:35:59.600Z,55.67
2022-10-21T16:40:53.513Z,55.79
2022-10-21T16:45:45.765Z,55.81
2022-10-21T16:50:38.313Z,55.86
2022-10-21T16:55:25.353Z,55.75
2022-10-21T17:00:18.661Z,55.8
2022-10-21T17:05:14.677Z,55.85
2022-10-21T17:10:00.613Z,55.89
2022-10-21T17:14:56.463Z,55.82
2022-10-21T17:24:36.959Z,55.88
2022-10-21T17:29:32.520Z,55.84
2022-10-21T17:34:24.741Z,55.8
2022-10-21T17:39:19.941Z,55.93
2022-10-21T17:49:01.948Z,55.82
2022-10-21T17:58:41.980Z,55.69
2022-10-21T18:08:23.811Z,56.14
2022-10-21T18:13:19.617Z,57.18
2022-10-21T18:18:06.921Z,58.31
2022-10-21T18:27:48.985Z,59.01
2022-10-21T18:32:42.767Z,58.9
2022-10-21T18:37:30.641Z,58.25
2022-10-21T18:42:24.624Z,58.08
2022-10-21T18:47:18.580Z,57.83
2022-10-21T18:52:11.447Z,57.83
2022-10-21T18:57:06.035Z,57.65
2022-10-21T19:02:01.012Z,57.56
2022-10-21T19:06:53.361Z,57.52
2022-10-21T19:11:45.850Z,57.56
2022-10-21T19:16:33.594Z,57.48
2022-10-21T19:21:26.363Z,57.42
2022-10-21T19:26:21.094Z,57.42
2022-10-21T19:31:06.654Z,57.34
2022-10-21T19:36:02.477Z,57.24
2022-10-21T19:40:57.581Z,57.39
2022-10-21T19:45:50.564Z,57.22
2022-10-21T19:50:44.631Z,57.36
2022-10-21T19:55:36.971Z,57.37
2022-10-21T20:00:29.573Z,57.31
2022-10-21T20:05:22.622Z,57.37
2022-10-21T20:10:15.422Z,57.35
2022-10-21T20:15:07.819Z,57.28
2022-10-21T20:19:54.877Z,57.31
2022-10-21T20:24:48.061Z,57.3
2022-10-21T20:29:43.961Z,57.29
2022-10-21T20:34:33.835Z,57.28
2022-10-21T20:39:24.062Z,57.24
2022-10-21T20:44:17.814Z,57.25
2022-10-21T20:49:10.687Z,57.21
2022-10-21T20:54:03.568Z,57.14
2022-10-21T20:58:56.308Z,57.17
2022-10-21T21:03:50.680Z,57.06
2022-10-21T21:08:49.173Z,57.12
2022-10-21T21:13:41.903Z,57.02
2022-10-21T21:18:23.989Z,57.07
2022-10-21T21:23:19.711Z,57.08
2022-10-21T21:28:14.765Z,57.1
2022-10-21T21:33:01.415Z,56.9
2022-10-21T21:37:55.051Z,57.02
2022-10-21T21:42:48.874Z,56.96
2022-10-21T21:47:41.866Z,56.96
2022-10-21T21:52:36.889Z,56.8
2022-10-21T21:57:29.455Z,56.83
2022-10-21T22:02:23.938Z,56.77
2022-10-21T22:07:18.445Z,56.8
2022-10-21T22:12:12.995Z,56.79
2022-10-21T22:17:06.840Z,56.53
2022-10-21T22:21:59.049Z,55.86
2022-10-21T22:26:51.778Z,55.91
2022-10-21T22:31:44.638Z,56
2022-10-21T22:36:39.965Z,56.05
2022-10-21T22:41:32.617Z,56.05
2022-10-21T22:46:34.111Z,56.08
2022-10-21T22:51:21.057Z,56.11
2022-10-21T22:56:15.552Z,56.1
2022-10-21T23:01:10.025Z,56.1
2022-10-21T23:06:02.592Z,56.13
2022-10-21T23:10:49.685Z,56.11
2022-10-21T23:15:43.275Z,56.21
2022-10-21T23:25:24.569Z,56.1
2022-10-21T23:30:12.443Z,56.12
2022-10-21T23:35:06.362Z,56.09
2022-10-21T23:40:00.485Z,56.09
2022-10-21T23:44:55.032Z,56.04
2022-10-21T23:49:49.522Z,56.08
2022-10-21T23:54:41.630Z,56.03
2022-10-21T23:59:34.387Z,56.03
